AR17 weather

Burns Aerodrome
Palestine, Arkansas, United States

Public forecast

Using degrees Fahrenheit for public forecast. Weather courtesy of forecast.io.

METAR (pilot weather report)

Closest report is Tunica Municipal Airport, 33.4 nm (61.8 km) ESE. Retrieved 2019/09/19 17:35 UTC (8 minutes ago):

KUTA 191735Z AUTO 00000KT 10SM 32/21 A3003 RMK AO2 TSNO

TAF (pilot weather forecast)

Closest forecast is Memphis International Airport, 46.3 nm (85.7 km) E. Retrieved 2019/09/19 12:28 UTC (5 hours ago):

TAF KMEM 191125Z 1912/2018 12005KT P6SM SKC FM191500 14007KT P6SM FEW045 SCT250 FM192200 15007KT P6SM VCSH SCT050 BKN250 FM200700 16008KT P6SM BKN045 OVC250 FM201500 17011KT P6SM BKN040